sensor_id;sensor_type;location;lat;lon;timestamp;P1;durP1;ratioP1;P2;durP2;ratioP2
64063;SDS011;50314;50.618;10.642;2023-05-14T00:00:42;3.47;;;2.40;;
64063;SDS011;50314;50.618;10.642;2023-05-14T00:03:08;3.58;;;2.10;;
64063;SDS011;50314;50.618;10.642;2023-05-14T00:05:33;3.45;;;2.20;;
64063;SDS011;50314;50.618;10.642;2023-05-14T00:07:59;4.00;;;2.42;;
64063;SDS011;50314;50.618;10.642;2023-05-14T00:10:25;3.08;;;2.72;;
64063;SDS011;50314;50.618;10.642;2023-05-14T00:12:51;3.80;;;2.15;;
64063;SDS011;50314;50.618;10.642;2023-05-14T00:15:17;4.38;;;2.28;;
64063;SDS011;50314;50.618;10.642;2023-05-14T00:17:43;4.65;;;2.67;;
64063;SDS011;50314;50.618;10.642;2023-05-14T00:20:09;3.97;;;2.17;;
64063;SDS011;50314;50.618;10.642;2023-05-14T00:27:28;4.32;;;2.40;;
64063;SDS011;50314;50.618;10.642;2023-05-14T00:29:53;3.28;;;2.35;;
64063;SDS011;50314;50.618;10.642;2023-05-14T00:32:19;3.65;;;2.60;;
64063;SDS011;50314;50.618;10.642;2023-05-14T00:34:45;2.63;;;2.20;;
64063;SDS011;50314;50.618;10.642;2023-05-14T00:37:10;3.10;;;2.10;;
64063;SDS011;50314;50.618;10.642;2023-05-14T00:39:36;4.85;;;2.72;;
64063;SDS011;50314;50.618;10.642;2023-05-14T00:42:01;3.38;;;2.50;;
64063;SDS011;50314;50.618;10.642;2023-05-14T00:44:27;4.50;;;2.55;;
64063;SDS011;50314;50.618;10.642;2023-05-14T00:46:52;2.88;;;1.95;;
64063;SDS011;50314;50.618;10.642;2023-05-14T00:49:18;3.70;;;2.45;;
64063;SDS011;50314;50.618;10.642;2023-05-14T00:51:44;3.20;;;2.20;;
64063;SDS011;50314;50.618;10.642;2023-05-14T00:56:38;2.70;;;1.90;;
64063;SDS011;50314;50.618;10.642;2023-05-14T00:59:03;2.28;;;1.60;;
64063;SDS011;50314;50.618;10.642;2023-05-14T01:01:29;2.25;;;1.80;;
64063;SDS011;50314;50.618;10.642;2023-05-14T01:04:07;3.70;;;2.58;;
64063;SDS011;50314;50.618;10.642;2023-05-14T01:09:02;2.42;;;1.70;;
64063;SDS011;50314;50.618;10.642;2023-05-14T01:16:49;2.60;;;1.80;;
64063;SDS011;50314;50.618;10.642;2023-05-14T01:22:07;2.72;;;1.98;;
64063;SDS011;50314;50.618;10.642;2023-05-14T01:24:33;2.38;;;1.67;;
64063;SDS011;50314;50.618;10.642;2023-05-14T01:29:44;1.95;;;1.50;;
64063;SDS011;50314;50.618;10.642;2023-05-14T01:32:17;2.47;;;1.88;;
64063;SDS011;50314;50.618;10.642;2023-05-14T01:34:47;2.30;;;1.60;;
64063;SDS011;50314;50.618;10.642;2023-05-14T01:37:15;2.20;;;2.00;;
64063;SDS011;50314;50.618;10.642;2023-05-14T01:39:42;2.97;;;2.20;;
64063;SDS011;50314;50.618;10.642;2023-05-14T01:42:09;2.00;;;1.33;;
64063;SDS011;50314;50.618;10.642;2023-05-14T01:44:35;2.20;;;2.00;;
64063;SDS011;50314;50.618;10.642;2023-05-14T01:47:02;2.42;;;1.90;;
64063;SDS011;50314;50.618;10.642;2023-05-14T01:49:28;1.85;;;1.60;;
64063;SDS011;50314;50.618;10.642;2023-05-14T01:51:53;2.53;;;1.88;;
64063;SDS011;50314;50.618;10.642;2023-05-14T01:54:19;3.53;;;1.73;;
64063;SDS011;50314;50.618;10.642;2023-05-14T01:56:45;2.78;;;1.73;;
64063;SDS011;50314;50.618;10.642;2023-05-14T01:59:11;2.60;;;1.80;;
64063;SDS011;50314;50.618;10.642;2023-05-14T02:01:36;3.15;;;1.60;;
64063;SDS011;50314;50.618;10.642;2023-05-14T02:04:02;3.17;;;2.00;;
64063;SDS011;50314;50.618;10.642;2023-05-14T02:06:28;2.60;;;1.70;;
64063;SDS011;50314;50.618;10.642;2023-05-14T02:08:54;3.28;;;1.98;;
64063;SDS011;50314;50.618;10.642;2023-05-14T02:11:20;2.85;;;1.85;;
64063;SDS011;50314;50.618;10.642;2023-05-14T02:13:45;2.00;;;1.48;;
64063;SDS011;50314;50.618;10.642;2023-05-14T02:16:12;2.28;;;1.50;;
64063;SDS011;50314;50.618;10.642;2023-05-14T02:18:37;1.95;;;1.45;;
64063;SDS011;50314;50.618;10.642;2023-05-14T02:21:03;2.30;;;1.70;;
64063;SDS011;50314;50.618;10.642;2023-05-14T02:23:31;2.40;;;1.48;;
64063;SDS011;50314;50.618;10.642;2023-05-14T02:25:57;1.83;;;1.70;;
64063;SDS011;50314;50.618;10.642;2023-05-14T02:28:23;2.63;;;1.73;;
64063;SDS011;50314;50.618;10.642;2023-05-14T02:30:48;1.60;;;1.50;;
64063;SDS011;50314;50.618;10.642;2023-05-14T02:33:14;2.28;;;1.42;;
64063;SDS011;50314;50.618;10.642;2023-05-14T02:35:40;2.03;;;1.70;;
64063;SDS011;50314;50.618;10.642;2023-05-14T02:38:05;2.42;;;1.45;;
64063;SDS011;50314;50.618;10.642;2023-05-14T02:40:32;1.90;;;1.70;;
64063;SDS011;50314;50.618;10.642;2023-05-14T02:42:58;2.55;;;1.50;;
64063;SDS011;50314;50.618;10.642;2023-05-14T02:45:23;1.58;;;1.38;;
64063;SDS011;50314;50.618;10.642;2023-05-14T02:47:49;1.70;;;1.33;;
64063;SDS011;50314;50.618;10.642;2023-05-14T02:50:14;1.80;;;1.30;;
64063;SDS011;50314;50.618;10.642;2023-05-14T02:52:41;2.05;;;1.30;;
64063;SDS011;50314;50.618;10.642;2023-05-14T02:55:07;1.67;;;1.48;;
64063;SDS011;50314;50.618;10.642;2023-05-14T02:57:32;2.30;;;1.80;;
64063;SDS011;50314;50.618;10.642;2023-05-14T02:59:58;1.75;;;1.50;;
64063;SDS011;50314;50.618;10.642;2023-05-14T03:02:24;1.60;;;1.50;;
64063;SDS011;50314;50.618;10.642;2023-05-14T03:04:50;2.35;;;1.70;;
64063;SDS011;50314;50.618;10.642;2023-05-14T03:07:16;1.77;;;1.10;;
64063;SDS011;50314;50.618;10.642;2023-05-14T03:09:42;1.50;;;1.30;;
64063;SDS011;50314;50.618;10.642;2023-05-14T03:12:08;2.35;;;1.70;;
64063;SDS011;50314;50.618;10.642;2023-05-14T03:14:35;1.98;;;1.77;;
64063;SDS011;50314;50.618;10.642;2023-05-14T03:17:02;2.22;;;1.70;;
64063;SDS011;50314;50.618;10.642;2023-05-14T03:19:28;2.65;;;1.50;;
64063;SDS011;50314;50.618;10.642;2023-05-14T03:21:55;2.38;;;1.80;;
64063;SDS011;50314;50.618;10.642;2023-05-14T03:24:21;1.77;;;1.67;;
64063;SDS011;50314;50.618;10.642;2023-05-14T03:26:47;1.92;;;1.67;;
64063;SDS011;50314;50.618;10.642;2023-05-14T03:29:12;1.88;;;1.60;;
64063;SDS011;50314;50.618;10.642;2023-05-14T03:31:43;1.65;;;1.52;;
64063;SDS011;50314;50.618;10.642;2023-05-14T03:34:12;2.60;;;1.75;;
64063;SDS011;50314;50.618;10.642;2023-05-14T03:36:37;2.25;;;1.88;;
64063;SDS011;50314;50.618;10.642;2023-05-14T03:39:05;2.33;;;1.58;;
64063;SDS011;50314;50.618;10.642;2023-05-14T03:41:34;2.13;;;1.60;;
64063;SDS011;50314;50.618;10.642;2023-05-14T03:44:00;2.15;;;1.58;;
64063;SDS011;50314;50.618;10.642;2023-05-14T03:46:26;1.85;;;1.40;;
64063;SDS011;50314;50.618;10.642;2023-05-14T03:48:53;1.50;;;1.40;;
64063;SDS011;50314;50.618;10.642;2023-05-14T03:51:19;1.65;;;1.20;;
64063;SDS011;50314;50.618;10.642;2023-05-14T03:53:46;2.22;;;1.50;;
64063;SDS011;50314;50.618;10.642;2023-05-14T03:56:12;2.00;;;1.50;;
64063;SDS011;50314;50.618;10.642;2023-05-14T03:58:37;1.55;;;1.27;;
64063;SDS011;50314;50.618;10.642;2023-05-14T04:01:03;2.15;;;1.20;;
64063;SDS011;50314;50.618;10.642;2023-05-14T04:03:29;2.10;;;1.50;;
64063;SDS011;50314;50.618;10.642;2023-05-14T04:05:55;2.28;;;1.48;;
64063;SDS011;50314;50.618;10.642;2023-05-14T04:08:21;1.55;;;1.20;;
64063;SDS011;50314;50.618;10.642;2023-05-14T04:10:46;1.23;;;1.10;;
64063;SDS011;50314;50.618;10.642;2023-05-14T04:13:12;1.27;;;1.17;;
64063;SDS011;50314;50.618;10.642;2023-05-14T04:15:38;1.50;;;1.40;;
64063;SDS011;50314;50.618;10.642;2023-05-14T04:18:04;1.92;;;1.30;;
64063;SDS011;50314;50.618;10.642;2023-05-14T04:20:31;1.48;;;1.38;;
64063;SDS011;50314;50.618;10.642;2023-05-14T04:22:57;1.40;;;1.08;;
64063;SDS011;50314;50.618;10.642;2023-05-14T04:25:24;1.85;;;1.40;;
64063;SDS011;50314;50.618;10.642;2023-05-14T04:27:49;2.55;;;1.40;;
64063;SDS011;50314;50.618;10.642;2023-05-14T04:30:17;1.73;;;1.25;;
64063;SDS011;50314;50.618;10.642;2023-05-14T04:32:43;1.27;;;1.17;;
64063;SDS011;50314;50.618;10.642;2023-05-14T04:35:09;1.92;;;1.25;;
64063;SDS011;50314;50.618;10.642;2023-05-14T04:37:35;1.35;;;1.25;;
64063;SDS011;50314;50.618;10.642;2023-05-14T04:40:01;2.25;;;1.33;;
64063;SDS011;50314;50.618;10.642;2023-05-14T04:42:27;1.30;;;1.05;;
64063;SDS011;50314;50.618;10.642;2023-05-14T04:44:53;1.90;;;1.50;;
64063;SDS011;50314;50.618;10.642;2023-05-14T04:47:19;1.60;;;1.50;;
64063;SDS011;50314;50.618;10.642;2023-05-14T04:49:45;1.55;;;1.40;;
64063;SDS011;50314;50.618;10.642;2023-05-14T04:52:10;1.48;;;1.23;;
64063;SDS011;50314;50.618;10.642;2023-05-14T04:54:37;1.98;;;1.45;;
64063;SDS011;50314;50.618;10.642;2023-05-14T04:57:03;1.83;;;1.60;;
64063;SDS011;50314;50.618;10.642;2023-05-14T04:59:29;4.45;;;1.55;;
64063;SDS011;50314;50.618;10.642;2023-05-14T05:01:56;1.75;;;1.40;;
64063;SDS011;50314;50.618;10.642;2023-05-14T05:04:22;1.80;;;1.40;;
64063;SDS011;50314;50.618;10.642;2023-05-14T05:06:49;1.92;;;1.60;;
64063;SDS011;50314;50.618;10.642;2023-05-14T05:09:15;1.52;;;1.33;;
64063;SDS011;50314;50.618;10.642;2023-05-14T05:14:07;2.40;;;1.50;;
64063;SDS011;50314;50.618;10.642;2023-05-14T05:16:33;3.97;;;1.45;;
64063;SDS011;50314;50.618;10.642;2023-05-14T05:18:58;1.90;;;1.30;;
64063;SDS011;50314;50.618;10.642;2023-05-14T05:21:24;1.98;;;1.67;;
64063;SDS011;50314;50.618;10.642;2023-05-14T05:23:50;2.10;;;1.40;;
64063;SDS011;50314;50.618;10.642;2023-05-14T05:26:16;1.67;;;1.48;;
64063;SDS011;50314;50.618;10.642;2023-05-14T05:28:41;1.98;;;1.30;;
64063;SDS011;50314;50.618;10.642;2023-05-14T05:31:07;1.63;;;1.42;;
64063;SDS011;50314;50.618;10.642;2023-05-14T05:33:33;1.40;;;1.30;;
64063;SDS011;50314;50.618;10.642;2023-05-14T05:35:59;1.55;;;1.38;;
64063;SDS011;50314;50.618;10.642;2023-05-14T05:38:27;2.20;;;1.48;;
64063;SDS011;50314;50.618;10.642;2023-05-14T05:40:52;1.60;;;1.25;;
64063;SDS011;50314;50.618;10.642;2023-05-14T05:43:18;1.85;;;1.65;;
64063;SDS011;50314;50.618;10.642;2023-05-14T05:45:44;1.95;;;1.38;;
64063;SDS011;50314;50.618;10.642;2023-05-14T05:48:10;2.35;;;1.70;;
64063;SDS011;50314;50.618;10.642;2023-05-14T05:50:36;1.83;;;1.33;;
64063;SDS011;50314;50.618;10.642;2023-05-14T05:53:01;2.13;;;1.40;;
64063;SDS011;50314;50.618;10.642;2023-05-14T05:55:28;1.45;;;1.10;;
64063;SDS011;50314;50.618;10.642;2023-05-14T05:57:54;1.73;;;1.55;;
64063;SDS011;50314;50.618;10.642;2023-05-14T06:00:20;1.92;;;1.52;;
64063;SDS011;50314;50.618;10.642;2023-05-14T06:02:47;1.42;;;1.30;;
64063;SDS011;50314;50.618;10.642;2023-05-14T06:05:14;1.73;;;1.30;;
64063;SDS011;50314;50.618;10.642;2023-05-14T06:07:44;1.92;;;1.50;;
64063;SDS011;50314;50.618;10.642;2023-05-14T06:10:09;1.60;;;1.30;;
64063;SDS011;50314;50.618;10.642;2023-05-14T06:12:35;1.95;;;1.52;;
64063;SDS011;50314;50.618;10.642;2023-05-14T06:15:01;1.38;;;1.15;;
64063;SDS011;50314;50.618;10.642;2023-05-14T06:17:27;1.70;;;1.27;;
64063;SDS011;50314;50.618;10.642;2023-05-14T06:19:52;1.75;;;1.40;;
64063;SDS011;50314;50.618;10.642;2023-05-14T06:22:18;1.88;;;1.50;;
64063;SDS011;50314;50.618;10.642;2023-05-14T06:24:46;3.60;;;1.70;;
64063;SDS011;50314;50.618;10.642;2023-05-14T06:27:12;1.80;;;1.40;;
64063;SDS011;50314;50.618;10.642;2023-05-14T06:29:38;2.00;;;1.60;;
64063;SDS011;50314;50.618;10.642;2023-05-14T06:32:03;1.67;;;1.40;;
64063;SDS011;50314;50.618;10.642;2023-05-14T06:34:39;1.92;;;1.50;;
64063;SDS011;50314;50.618;10.642;2023-05-14T06:37:06;3.75;;;1.60;;
64063;SDS011;50314;50.618;10.642;2023-05-14T06:39:34;1.92;;;1.40;;
64063;SDS011;50314;50.618;10.642;2023-05-14T06:42:00;5.57;;;1.92;;
64063;SDS011;50314;50.618;10.642;2023-05-14T06:44:26;3.70;;;1.75;;
64063;SDS011;50314;50.618;10.642;2023-05-14T06:46:51;3.30;;;1.30;;
64063;SDS011;50314;50.618;10.642;2023-05-14T06:49:17;4.00;;;1.75;;
64063;SDS011;50314;50.618;10.642;2023-05-14T06:51:43;2.53;;;1.70;;
64063;SDS011;50314;50.618;10.642;2023-05-14T06:54:09;2.47;;;1.60;;
64063;SDS011;50314;50.618;10.642;2023-05-14T06:56:35;2.00;;;1.80;;
64063;SDS011;50314;50.618;10.642;2023-05-14T06:59:01;2.03;;;1.58;;
64063;SDS011;50314;50.618;10.642;2023-05-14T07:01:26;2.83;;;1.67;;
64063;SDS011;50314;50.618;10.642;2023-05-14T07:03:52;3.45;;;2.10;;
64063;SDS011;50314;50.618;10.642;2023-05-14T07:06:18;3.92;;;2.88;;
64063;SDS011;50314;50.618;10.642;2023-05-14T07:08:43;2.35;;;2.03;;
64063;SDS011;50314;50.618;10.642;2023-05-14T07:11:11;3.38;;;2.05;;
64063;SDS011;50314;50.618;10.642;2023-05-14T07:13:38;3.33;;;2.03;;
64063;SDS011;50314;50.618;10.642;2023-05-14T07:16:04;1.60;;;1.50;;
64063;SDS011;50314;50.618;10.642;2023-05-14T07:18:30;2.33;;;1.95;;
64063;SDS011;50314;50.618;10.642;2023-05-14T07:20:56;2.33;;;1.80;;
64063;SDS011;50314;50.618;10.642;2023-05-14T07:23:22;4.03;;;2.03;;
64063;SDS011;50314;50.618;10.642;2023-05-14T07:25:47;2.88;;;2.05;;
64063;SDS011;50314;50.618;10.642;2023-05-14T07:28:13;3.78;;;2.22;;
64063;SDS011;50314;50.618;10.642;2023-05-14T07:30:38;2.10;;;1.90;;
64063;SDS011;50314;50.618;10.642;2023-05-14T07:33:04;1.95;;;1.58;;
64063;SDS011;50314;50.618;10.642;2023-05-14T07:35:30;2.58;;;1.48;;
64063;SDS011;50314;50.618;10.642;2023-05-14T07:37:55;2.00;;;1.73;;
64063;SDS011;50314;50.618;10.642;2023-05-14T07:40:21;3.13;;;2.22;;
64063;SDS011;50314;50.618;10.642;2023-05-14T07:42:49;4.10;;;1.80;;
64063;SDS011;50314;50.618;10.642;2023-05-14T07:45:15;2.22;;;1.92;;
64063;SDS011;50314;50.618;10.642;2023-05-14T07:47:40;5.30;;;2.10;;
64063;SDS011;50314;50.618;10.642;2023-05-14T07:50:06;2.10;;;1.70;;
64063;SDS011;50314;50.618;10.642;2023-05-14T07:52:32;2.92;;;2.00;;
64063;SDS011;50314;50.618;10.642;2023-05-14T07:54:58;2.38;;;1.90;;
64063;SDS011;50314;50.618;10.642;2023-05-14T07:59:50;3.03;;;2.30;;
64063;SDS011;50314;50.618;10.642;2023-05-14T08:02:16;2.97;;;1.75;;
64063;SDS011;50314;50.618;10.642;2023-05-14T08:04:42;2.67;;;2.20;;
64063;SDS011;50314;50.618;10.642;2023-05-14T08:07:07;1.92;;;1.55;;
64063;SDS011;50314;50.618;10.642;2023-05-14T08:09:33;3.28;;;1.65;;
64063;SDS011;50314;50.618;10.642;2023-05-14T08:11:59;2.92;;;2.00;;
64063;SDS011;50314;50.618;10.642;2023-05-14T08:14:25;1.90;;;1.70;;
64063;SDS011;50314;50.618;10.642;2023-05-14T08:16:51;2.50;;;1.85;;
64063;SDS011;50314;50.618;10.642;2023-05-14T08:19:17;1.85;;;1.33;;
64063;SDS011;50314;50.618;10.642;2023-05-14T08:21:42;2.30;;;1.85;;
64063;SDS011;50314;50.618;10.642;2023-05-14T08:24:08;2.83;;;1.92;;
64063;SDS011;50314;50.618;10.642;2023-05-14T08:26:34;3.13;;;1.80;;
64063;SDS011;50314;50.618;10.642;2023-05-14T08:28:59;2.38;;;1.80;;
64063;SDS011;50314;50.618;10.642;2023-05-14T08:31:25;2.08;;;1.40;;
64063;SDS011;50314;50.618;10.642;2023-05-14T08:33:51;2.85;;;1.60;;
64063;SDS011;50314;50.618;10.642;2023-05-14T08:36:16;2.88;;;2.00;;
64063;SDS011;50314;50.618;10.642;2023-05-14T08:38:42;1.80;;;1.45;;
64063;SDS011;50314;50.618;10.642;2023-05-14T08:41:09;2.15;;;1.73;;
64063;SDS011;50314;50.618;10.642;2023-05-14T08:46:20;2.83;;;1.70;;
64063;SDS011;50314;50.618;10.642;2023-05-14T08:48:49;2.30;;;1.70;;
64063;SDS011;50314;50.618;10.642;2023-05-14T08:51:22;2.08;;;1.70;;
64063;SDS011;50314;50.618;10.642;2023-05-14T08:53:50;2.10;;;1.50;;
64063;SDS011;50314;50.618;10.642;2023-05-14T08:56:16;2.88;;;1.95;;
64063;SDS011;50314;50.618;10.642;2023-05-14T08:58:42;2.25;;;1.70;;
64063;SDS011;50314;50.618;10.642;2023-05-14T09:01:08;2.25;;;1.85;;
64063;SDS011;50314;50.618;10.642;2023-05-14T09:03:33;2.97;;;1.50;;
64063;SDS011;50314;50.618;10.642;2023-05-14T09:06:00;3.78;;;1.70;;
64063;SDS011;50314;50.618;10.642;2023-05-14T09:08:26;2.25;;;1.80;;
64063;SDS011;50314;50.618;10.642;2023-05-14T09:10:51;2.72;;;2.10;;
64063;SDS011;50314;50.618;10.642;2023-05-14T09:13:17;2.72;;;2.40;;
64063;SDS011;50314;50.618;10.642;2023-05-14T09:15:42;3.17;;;2.65;;
64063;SDS011;50314;50.618;10.642;2023-05-14T09:18:10;2.53;;;2.10;;
64063;SDS011;50314;50.618;10.642;2023-05-14T09:20:35;3.03;;;2.20;;
64063;SDS011;50314;50.618;10.642;2023-05-14T09:23:02;4.32;;;2.33;;
64063;SDS011;50314;50.618;10.642;2023-05-14T09:25:31;2.35;;;2.05;;
64063;SDS011;50314;50.618;10.642;2023-05-14T09:27:57;2.95;;;2.10;;
64063;SDS011;50314;50.618;10.642;2023-05-14T09:30:23;2.28;;;2.00;;
64063;SDS011;50314;50.618;10.642;2023-05-14T09:32:52;1.88;;;1.77;;
64063;SDS011;50314;50.618;10.642;2023-05-14T09:35:19;2.70;;;2.05;;
64063;SDS011;50314;50.618;10.642;2023-05-14T09:37:47;4.28;;;1.98;;
64063;SDS011;50314;50.618;10.642;2023-05-14T09:40:14;2.00;;;1.80;;
64063;SDS011;50314;50.618;10.642;2023-05-14T09:42:40;2.90;;;2.17;;
64063;SDS011;50314;50.618;10.642;2023-05-14T09:45:06;2.65;;;2.03;;
64063;SDS011;50314;50.618;10.642;2023-05-14T09:47:33;2.15;;;1.73;;
64063;SDS011;50314;50.618;10.642;2023-05-14T09:49:59;3.65;;;2.28;;
64063;SDS011;50314;50.618;10.642;2023-05-14T09:52:25;2.33;;;1.65;;
64063;SDS011;50314;50.618;10.642;2023-05-14T09:54:51;2.03;;;1.80;;
64063;SDS011;50314;50.618;10.642;2023-05-14T09:57:17;2.40;;;1.88;;
64063;SDS011;50314;50.618;10.642;2023-05-14T09:59:43;2.58;;;1.83;;
64063;SDS011;50314;50.618;10.642;2023-05-14T10:02:18;2.72;;;1.83;;
64063;SDS011;50314;50.618;10.642;2023-05-14T10:04:48;2.13;;;1.65;;
64063;SDS011;50314;50.618;10.642;2023-05-14T10:07:16;2.20;;;1.83;;
64063;SDS011;50314;50.618;10.642;2023-05-14T10:09:47;1.92;;;1.30;;
64063;SDS011;50314;50.618;10.642;2023-05-14T10:12:12;2.08;;;1.60;;
64063;SDS011;50314;50.618;10.642;2023-05-14T10:14:42;1.83;;;1.42;;
64063;SDS011;50314;50.618;10.642;2023-05-14T10:17:13;1.80;;;1.60;;
64063;SDS011;50314;50.618;10.642;2023-05-14T10:19:46;2.35;;;1.60;;
64063;SDS011;50314;50.618;10.642;2023-05-14T10:22:16;2.17;;;1.70;;
64063;SDS011;50314;50.618;10.642;2023-05-14T10:24:46;1.70;;;1.27;;
64063;SDS011;50314;50.618;10.642;2023-05-14T10:27:16;2.10;;;1.27;;
64063;SDS011;50314;50.618;10.642;2023-05-14T10:29:47;1.95;;;1.70;;
64063;SDS011;50314;50.618;10.642;2023-05-14T10:32:20;1.92;;;1.73;;
64063;SDS011;50314;50.618;10.642;2023-05-14T10:34:48;2.85;;;1.65;;
64063;SDS011;50314;50.618;10.642;2023-05-14T10:37:15;1.73;;;1.60;;
64063;SDS011;50314;50.618;10.642;2023-05-14T10:39:58;2.03;;;1.85;;
64063;SDS011;50314;50.618;10.642;2023-05-14T10:47:23;1.85;;;1.50;;
64063;SDS011;50314;50.618;10.642;2023-05-14T10:49:51;2.25;;;1.83;;
64063;SDS011;50314;50.618;10.642;2023-05-14T10:52:21;2.35;;;2.05;;
64063;SDS011;50314;50.618;10.642;2023-05-14T10:57:18;2.15;;;1.77;;
64063;SDS011;50314;50.618;10.642;2023-05-14T10:59:49;1.85;;;1.70;;
64063;SDS011;50314;50.618;10.642;2023-05-14T11:04:53;2.13;;;1.65;;
64063;SDS011;50314;50.618;10.642;2023-05-14T11:07:32;1.60;;;1.50;;
64063;SDS011;50314;50.618;10.642;2023-05-14T11:10:07;3.50;;;1.58;;
64063;SDS011;50314;50.618;10.642;2023-05-14T11:12:35;3.28;;;1.77;;
64063;SDS011;50314;50.618;10.642;2023-05-14T11:15:06;3.08;;;1.55;;
64063;SDS011;50314;50.618;10.642;2023-05-14T11:17:36;1.73;;;1.38;;
64063;SDS011;50314;50.618;10.642;2023-05-14T11:20:03;2.33;;;1.60;;
64063;SDS011;50314;50.618;10.642;2023-05-14T11:22:32;2.03;;;1.70;;
64063;SDS011;50314;50.618;10.642;2023-05-14T11:24:58;2.92;;;1.70;;
64063;SDS011;50314;50.618;10.642;2023-05-14T11:27:24;2.72;;;1.50;;
64063;SDS011;50314;50.618;10.642;2023-05-14T11:29:50;1.98;;;1.67;;
64063;SDS011;50314;50.618;10.642;2023-05-14T11:32:17;2.63;;;1.90;;
64063;SDS011;50314;50.618;10.642;2023-05-14T11:34:43;2.53;;;1.60;;
64063;SDS011;50314;50.618;10.642;2023-05-14T11:37:10;2.03;;;1.50;;
64063;SDS011;50314;50.618;10.642;2023-05-14T11:39:37;2.53;;;1.83;;
64063;SDS011;50314;50.618;10.642;2023-05-14T11:42:03;3.65;;;2.15;;
64063;SDS011;50314;50.618;10.642;2023-05-14T11:44:33;2.80;;;1.80;;
64063;SDS011;50314;50.618;10.642;2023-05-14T11:46:59;2.28;;;1.95;;
64063;SDS011;50314;50.618;10.642;2023-05-14T11:49:29;1.70;;;1.60;;
64063;SDS011;50314;50.618;10.642;2023-05-14T11:51:58;2.58;;;1.70;;
64063;SDS011;50314;50.618;10.642;2023-05-14T11:54:26;3.42;;;1.80;;
64063;SDS011;50314;50.618;10.642;2023-05-14T11:56:55;2.50;;;1.85;;
64063;SDS011;50314;50.618;10.642;2023-05-14T11:59:25;2.90;;;2.30;;
64063;SDS011;50314;50.618;10.642;2023-05-14T12:01:53;1.88;;;1.67;;
64063;SDS011;50314;50.618;10.642;2023-05-14T12:04:19;1.90;;;1.58;;
64063;SDS011;50314;50.618;10.642;2023-05-14T12:06:49;1.95;;;1.40;;
64063;SDS011;50314;50.618;10.642;2023-05-14T12:09:19;3.20;;;1.85;;
64063;SDS011;50314;50.618;10.642;2023-05-14T12:11:46;1.92;;;1.80;;
64063;SDS011;50314;50.618;10.642;2023-05-14T12:16:47;2.83;;;2.05;;
64063;SDS011;50314;50.618;10.642;2023-05-14T12:19:14;1.80;;;1.67;;
64063;SDS011;50314;50.618;10.642;2023-05-14T12:21:44;1.95;;;1.60;;
64063;SDS011;50314;50.618;10.642;2023-05-14T12:24:12;2.35;;;1.67;;
64063;SDS011;50314;50.618;10.642;2023-05-14T12:26:42;2.95;;;1.85;;
64063;SDS011;50314;50.618;10.642;2023-05-14T12:29:10;2.63;;;1.67;;
64063;SDS011;50314;50.618;10.642;2023-05-14T12:31:37;1.90;;;1.33;;
64063;SDS011;50314;50.618;10.642;2023-05-14T12:34:02;2.35;;;1.50;;
64063;SDS011;50314;50.618;10.642;2023-05-14T12:36:28;2.85;;;2.08;;
64063;SDS011;50314;50.618;10.642;2023-05-14T12:38:59;1.73;;;1.60;;
64063;SDS011;50314;50.618;10.642;2023-05-14T12:41:26;2.03;;;1.50;;
64063;SDS011;50314;50.618;10.642;2023-05-14T12:43:52;2.10;;;1.52;;
64063;SDS011;50314;50.618;10.642;2023-05-14T12:46:17;2.95;;;1.50;;
64063;SDS011;50314;50.618;10.642;2023-05-14T12:48:43;1.67;;;1.55;;
64063;SDS011;50314;50.618;10.642;2023-05-14T12:51:09;3.45;;;1.83;;
64063;SDS011;50314;50.618;10.642;2023-05-14T12:53:34;3.85;;;1.50;;
64063;SDS011;50314;50.618;10.642;2023-05-14T12:56:00;2.47;;;1.52;;
64063;SDS011;50314;50.618;10.642;2023-05-14T12:58:25;2.33;;;1.70;;
64063;SDS011;50314;50.618;10.642;2023-05-14T13:00:51;1.80;;;1.60;;
64063;SDS011;50314;50.618;10.642;2023-05-14T13:03:16;1.67;;;1.30;;
64063;SDS011;50314;50.618;10.642;2023-05-14T13:05:42;1.63;;;1.40;;
64063;SDS011;50314;50.618;10.642;2023-05-14T13:08:08;2.50;;;1.90;;
64063;SDS011;50314;50.618;10.642;2023-05-14T13:10:34;1.60;;;1.50;;
64063;SDS011;50314;50.618;10.642;2023-05-14T13:12:59;2.38;;;1.63;;
64063;SDS011;50314;50.618;10.642;2023-05-14T13:17:52;2.03;;;1.50;;
64063;SDS011;50314;50.618;10.642;2023-05-14T13:20:17;2.08;;;1.65;;
64063;SDS011;50314;50.618;10.642;2023-05-14T13:22:43;1.85;;;1.48;;
64063;SDS011;50314;50.618;10.642;2023-05-14T13:25:09;2.38;;;1.60;;
64063;SDS011;50314;50.618;10.642;2023-05-14T13:27:34;2.03;;;1.67;;
64063;SDS011;50314;50.618;10.642;2023-05-14T13:30:01;1.95;;;1.60;;
64063;SDS011;50314;50.618;10.642;2023-05-14T13:32:28;2.45;;;1.90;;
64063;SDS011;50314;50.618;10.642;2023-05-14T13:34:53;6.90;;;2.08;;
64063;SDS011;50314;50.618;10.642;2023-05-14T13:37:19;2.70;;;1.73;;
64063;SDS011;50314;50.618;10.642;2023-05-14T13:39:44;2.00;;;1.60;;
64063;SDS011;50314;50.618;10.642;2023-05-14T13:42:10;2.22;;;1.58;;
64063;SDS011;50314;50.618;10.642;2023-05-14T13:44:35;2.97;;;1.70;;
64063;SDS011;50314;50.618;10.642;2023-05-14T13:47:01;2.28;;;1.67;;
64063;SDS011;50314;50.618;10.642;2023-05-14T13:49:26;2.75;;;2.00;;
64063;SDS011;50314;50.618;10.642;2023-05-14T13:51:52;2.75;;;1.85;;
64063;SDS011;50314;50.618;10.642;2023-05-14T13:54:17;2.80;;;1.65;;
64063;SDS011;50314;50.618;10.642;2023-05-14T13:56:43;2.42;;;1.85;;
64063;SDS011;50314;50.618;10.642;2023-05-14T13:59:08;2.30;;;1.95;;
64063;SDS011;50314;50.618;10.642;2023-05-14T14:01:35;2.70;;;1.70;;
64063;SDS011;50314;50.618;10.642;2023-05-14T14:04:00;2.85;;;2.15;;
64063;SDS011;50314;50.618;10.642;2023-05-14T14:06:26;2.72;;;1.83;;
64063;SDS011;50314;50.618;10.642;2023-05-14T14:08:51;3.60;;;2.30;;
64063;SDS011;50314;50.618;10.642;2023-05-14T14:11:17;2.17;;;1.73;;
64063;SDS011;50314;50.618;10.642;2023-05-14T14:13:43;2.10;;;1.55;;
64063;SDS011;50314;50.618;10.642;2023-05-14T14:16:08;1.73;;;1.50;;
64063;SDS011;50314;50.618;10.642;2023-05-14T14:18:34;2.85;;;1.80;;
64063;SDS011;50314;50.618;10.642;2023-05-14T14:21:00;2.30;;;1.80;;
64063;SDS011;50314;50.618;10.642;2023-05-14T14:23:25;3.08;;;1.90;;
64063;SDS011;50314;50.618;10.642;2023-05-14T14:25:51;3.40;;;1.80;;
64063;SDS011;50314;50.618;10.642;2023-05-14T14:28:16;2.35;;;1.90;;
64063;SDS011;50314;50.618;10.642;2023-05-14T14:30:43;2.58;;;1.80;;
64063;SDS011;50314;50.618;10.642;2023-05-14T14:33:08;2.22;;;1.50;;
64063;SDS011;50314;50.618;10.642;2023-05-14T14:35:35;5.30;;;1.88;;
64063;SDS011;50314;50.618;10.642;2023-05-14T14:38:01;2.17;;;1.60;;
64063;SDS011;50314;50.618;10.642;2023-05-14T14:40:27;1.50;;;1.40;;
64063;SDS011;50314;50.618;10.642;2023-05-14T14:45:19;2.00;;;1.40;;
64063;SDS011;50314;50.618;10.642;2023-05-14T14:47:45;1.52;;;1.40;;
64063;SDS011;50314;50.618;10.642;2023-05-14T14:50:11;1.77;;;1.60;;
64063;SDS011;50314;50.618;10.642;2023-05-14T14:52:37;1.98;;;1.38;;
64063;SDS011;50314;50.618;10.642;2023-05-14T14:55:05;2.57;;;1.50;;
64063;SDS011;50314;50.618;10.642;2023-05-14T14:57:31;1.88;;;1.60;;
64063;SDS011;50314;50.618;10.642;2023-05-14T14:59:56;1.85;;;1.70;;
64063;SDS011;50314;50.618;10.642;2023-05-14T15:02:22;1.60;;;1.50;;
64063;SDS011;50314;50.618;10.642;2023-05-14T15:04:47;1.65;;;1.45;;
64063;SDS011;50314;50.618;10.642;2023-05-14T15:07:13;2.08;;;1.52;;
64063;SDS011;50314;50.618;10.642;2023-05-14T15:09:41;1.60;;;1.48;;
64063;SDS011;50314;50.618;10.642;2023-05-14T15:12:07;1.58;;;1.40;;
64063;SDS011;50314;50.618;10.642;2023-05-14T15:14:33;1.73;;;1.30;;